Time;durP1;ratioP1;P1;durP2;ratioP2;P2;SDS_P1;SDS_P2;PMS_P1;PMS_P2;Temp;Humidity;BMP_temperature;BMP_pressure;BME280_temperature;BME280_humidity;BME280_pressure;Samples;Min_cycle;Max_cycle;Signal;HPM_P1;HPM_P2
2022/02/08 00:01:22;;;;;;;;;;;;;;;-144.99;93.35;52656.00;5010439;28;19952;-58
2022/02/08 00:03:49;;;;;;;;;;;;;;;-144.99;94.08;52639.69;5010214;28;19968;-59
2022/02/08 00:06:35;;;;;;;;;;;;;;;-144.99;94.01;52627.47;5010098;28;19994;-57
2022/02/08 00:09:02;;;;;;;;;;;;;;;-144.99;93.59;52639.69;5010604;28;20241;-59
2022/02/08 00:11:28;;;;;;;;;;;;;;;-144.99;93.59;52643.78;5010256;28;20114;-58
2022/02/08 00:13:55;;;;;;;;;;;;;;;-144.99;93.60;52617.28;5010153;28;19968;-59
2022/02/08 00:16:21;;;;;;;;;;;;;;;-144.99;93.51;52625.44;5010495;28;19951;-59
2022/02/08 00:18:47;;;;;;;;;;;;;;;-144.99;93.01;52613.19;5011394;28;20473;-58
2022/02/08 00:21:14;;;;;;;;;;;;;;;-144.99;93.09;52619.31;5012276;28;19982;-59
2022/02/08 00:23:42;;;;;;;;;;;;;;;-144.99;93.05;52639.69;5012914;28;20335;-57
2022/02/08 00:26:09;;;;;;;;;;;;;;;-144.99;92.98;52678.44;5012431;28;20198;-58
2022/02/08 00:28:37;;;;;;;;;;;;;;;-144.99;92.85;52647.84;5013062;28;19947;-59
2022/02/08 00:31:04;;;;;;;;;;;;;;;-144.99;92.25;52623.38;5008644;28;19978;-58
2022/02/08 00:33:30;;;;;;;;;;;;;;;-144.99;92.05;52651.94;5010318;28;19975;-58
2022/02/08 00:35:57;;;;;;;;;;;;;;;-144.99;92.32;52635.63;5009620;28;19952;-60
2022/02/08 00:38:23;;;;;;;;;;;;;;;-144.99;91.91;52656.00;5009943;28;19992;-60
2022/02/08 00:40:56;;;;;;;;;;;;;;;-144.99;92.22;52635.63;5009947;28;19946;-59
2022/02/08 00:43:27;;;;;;;;;;;;;;;-144.99;92.48;52678.44;5008852;28;20001;-60
2022/02/08 00:45:58;;;;;;;;;;;;;;;-144.99;92.05;52647.84;5009573;28;19971;-61
2022/02/08 00:48:30;;;;;;;;;;;;;;;-144.99;91.72;52631.53;5010011;28;20007;-58
2022/02/08 00:50:57;;;;;;;;;;;;;;;-144.99;91.84;52660.09;5009137;28;20010;-59
2022/02/08 00:53:23;;;;;;;;;;;;;;;-144.99;91.53;52656.00;5009423;28;20336;-60
2022/02/08 00:55:51;;;;;;;;;;;;;;;-144.99;91.98;52635.63;5009413;28;20434;-59
2022/02/08 00:58:17;;;;;;;;;;;;;;;-144.99;92.31;52641.72;5009978;28;19966;-57
2022/02/08 01:00:44;;;;;;;;;;;;;;;-144.99;91.67;52645.81;5009323;28;20437;-59
2022/02/08 01:03:11;;;;;;;;;;;;;;;-144.99;91.42;52651.94;5009377;28;19968;-58
2022/02/08 01:05:42;;;;;;;;;;;;;;;-144.99;90.78;52643.78;5009613;28;20048;-59
2022/02/08 01:08:09;;;;;;;;;;;;;;;-144.99;91.18;52660.09;5009259;28;19943;-59
2022/02/08 01:10:38;;;;;;;;;;;;;;;-144.99;92.00;52619.31;5009517;28;19960;-58
2022/02/08 01:13:06;;;;;;;;;;;;;;;-144.99;93.12;52656.00;5009214;28;20040;-58
2022/02/08 01:15:33;;;;;;;;;;;;;;;-144.99;93.91;52656.00;5009142;28;19988;-58
2022/02/08 01:18:00;;;;;;;;;;;;;;;-144.99;93.23;52676.38;5009890;28;20000;-62
2022/02/08 01:20:32;;;;;;;;;;;;;;;-144.99;94.03;52615.25;5009403;28;19954;-59
2022/02/08 01:23:01;;;;;;;;;;;;;;;-144.99;94.03;52637.66;5009231;28;19974;-59
2022/02/08 01:25:31;;;;;;;;;;;;;;;-144.99;94.62;52656.00;5009457;28;19953;-61
2022/02/08 01:28:07;;;;;;;;;;;;;;;-144.99;96.10;52631.53;5009590;28;20405;-60
2022/02/08 01:30:45;;;;;;;;;;;;;;;-144.99;96.35;52643.78;5009250;28;19966;-59
2022/02/08 01:33:33;;;;;;;;;;;;;;;-144.99;97.43;52660.09;5008799;28;19977;-60
2022/02/08 01:36:23;;;;;;;;;;;;;;;-144.99;98.60;52635.63;5009446;28;19952;-61
2022/02/08 01:38:55;;;;;;;;;;;;;;;-144.99;99.06;52637.66;5009431;28;19973;-59
2022/02/08 01:41:32;;;;;;;;;;;;;;;-144.99;99.27;52649.88;5009414;28;19954;-60
2022/02/08 01:44:13;;;;;;;;;;;;;;;-144.99;99.52;52664.16;5009528;28;20578;-59
2022/02/08 01:46:57;;;;;;;;;;;;;;;-144.99;99.67;52631.53;5009452;28;19967;-61
2022/02/08 01:49:36;;;;;;;;;;;;;;;-144.99;100.00;52623.38;5009402;28;19997;-59
2022/02/08 01:52:06;;;;;;;;;;;;;;;-144.99;100.00;52633.59;5009103;28;20383;-59
2022/02/08 01:54:33;;;;;;;;;;;;;;;-144.99;100.00;52627.47;5011518;28;19966;-61
2022/02/08 01:56:59;;;;;;;;;;;;;;;-144.99;100.00;52656.00;5013005;28;20053;-59
2022/02/08 01:59:26;;;;;;;;;;;;;;;-144.99;100.00;52615.25;5013435;28;20093;-60
2022/02/08 02:01:54;;;;;;;;;;;;;;;-144.99;100.00;52639.69;5012141;28;19965;-60
2022/02/08 02:04:20;;;;;;;;;;;;;;;-144.99;100.00;52627.47;5012970;28;20075;-59
2022/02/08 02:06:47;;;;;;;;;;;;;;;-144.99;100.00;52639.69;5012293;28;19992;-61
2022/02/08 02:09:14;;;;;;;;;;;;;;;-144.99;100.00;52623.38;5005476;28;20058;-59
2022/02/08 02:11:40;;;;;;;;;;;;;;;-144.99;100.00;52647.84;5012534;28;20444;-59
2022/02/08 02:14:07;;;;;;;;;;;;;;;-144.99;100.00;52651.94;5012627;28;20119;-59
2022/02/08 02:16:44;;;;;;;;;;;;;;;-144.99;100.00;52609.13;5012186;28;20474;-59
2022/02/08 02:19:12;;;;;;;;;;;;;;;-144.99;100.00;52631.53;5013336;28;20075;-58
2022/02/08 02:21:38;;;;;;;;;;;;;;;-144.99;100.00;52639.69;5012215;28;20064;-58
2022/02/08 02:24:06;;;;;;;;;;;;;;;-144.99;100.00;52603.00;5012385;28;19983;-58
2022/02/08 02:26:33;;;;;;;;;;;;;;;-144.99;100.00;52647.84;5012713;28;20067;-59
2022/02/08 02:29:00;;;;;;;;;;;;;;;-144.99;100.00;52627.47;5012258;28;19978;-59
2022/02/08 02:31:26;;;;;;;;;;;;;;;-144.99;100.00;52623.38;5011845;28;19988;-59
2022/02/08 02:33:52;;;;;;;;;;;;;;;-144.99;100.00;52639.69;5012134;28;19987;-58
2022/02/08 02:36:19;;;;;;;;;;;;;;;-144.99;100.00;52662.13;5011774;28;20049;-59
2022/02/08 02:38:45;;;;;;;;;;;;;;;-144.99;100.00;52635.63;5012269;28;19973;-59
2022/02/08 02:41:13;;;;;;;;;;;;;;;-144.99;100.00;52611.16;5012137;28;19983;-58
2022/02/08 02:43:41;;;;;;;;;;;;;;;-144.99;100.00;52615.25;5011653;28;20125;-59
2022/02/08 02:46:07;;;;;;;;;;;;;;;-144.99;100.00;52619.31;5012054;28;19987;-58
2022/02/08 02:48:34;;;;;;;;;;;;;;;-144.99;100.00;52639.69;5012065;28;20062;-59
2022/02/08 02:51:00;;;;;;;;;;;;;;;-144.99;100.00;52623.38;5011424;28;20526;-58
2022/02/08 02:53:27;;;;;;;;;;;;;;;-144.99;100.00;52627.47;5011678;28;20038;-58
2022/02/08 02:55:53;;;;;;;;;;;;;;;-144.99;100.00;52590.78;5012331;28;20014;-59
2022/02/08 02:58:25;;;;;;;;;;;;;;;-144.99;100.00;52615.25;5012113;28;19992;-59
2022/02/08 03:01:07;;;;;;;;;;;;;;;-144.99;100.00;52631.53;5011830;28;19978;-59
2022/02/08 03:03:47;;;;;;;;;;;;;;;-144.99;100.00;52637.66;5011689;28;20001;-58
2022/02/08 03:20:06;;;;;;;;;;;;;;;-144.99;100.00;52668.22;4969688;28;19976;-61
2022/02/08 03:22:32;;;;;;;;;;;;;;;-144.99;100.00;52635.63;4972223;28;20027;-59
2022/02/08 03:24:58;;;;;;;;;;;;;;;-144.99;100.00;52619.31;4987599;28;20441;-58
2022/02/08 03:27:25;;;;;;;;;;;;;;;-144.99;100.00;52605.03;5012274;28;20055;-59
2022/02/08 03:29:53;;;;;;;;;;;;;;;-144.99;100.00;52603.00;5011502;28;19985;-60
2022/02/08 03:32:20;;;;;;;;;;;;;;;-144.99;100.00;52586.69;5012100;28;20451;-62
2022/02/08 03:34:47;;;;;;;;;;;;;;;-144.99;100.00;52643.78;5010843;28;19979;-60
2022/02/08 03:37:17;;;;;;;;;;;;;;;-144.99;100.00;52641.72;5011794;28;20013;-60
2022/02/08 03:39:52;;;;;;;;;;;;;;;-144.99;100.00;52639.69;5011443;28;19987;-62
2022/02/08 03:42:22;;;;;;;;;;;;;;;-144.99;100.00;52639.69;5012266;28;20468;-60
2022/02/08 03:44:50;;;;;;;;;;;;;;;-144.99;100.00;52603.00;5012193;28;20416;-62
2022/02/08 03:47:25;;;;;;;;;;;;;;;-144.99;100.00;52621.34;5011876;28;19978;-59
2022/02/08 03:49:51;;;;;;;;;;;;;;;-144.99;100.00;52611.16;5010396;28;20351;-61
2022/02/08 03:52:23;;;;;;;;;;;;;;;-144.99;100.00;52607.09;5011150;28;20153;-60
2022/02/08 03:54:49;;;;;;;;;;;;;;;-144.99;100.00;52611.16;5011064;28;19963;-59
2022/02/08 03:57:16;;;;;;;;;;;;;;;-144.99;100.00;52619.31;5011345;28;20550;-58
2022/02/08 03:59:43;;;;;;;;;;;;;;;-144.99;100.00;52574.47;5010644;28;20091;-59
2022/02/08 04:04:56;;;;;;;;;;;;;;;-144.99;100.00;52607.09;5010589;28;19930;-58
2022/02/08 04:07:26;;;;;;;;;;;;;;;-144.99;100.00;52603.00;5011433;28;19979;-59
2022/02/08 04:09:59;;;;;;;;;;;;;;;-144.99;100.00;52603.00;5010612;28;19948;-59
2022/02/08 04:12:32;;;;;;;;;;;;;;;-144.99;100.00;52631.53;5010672;28;20020;-59
2022/02/08 04:15:15;;;;;;;;;;;;;;;-144.99;100.00;52615.25;5010419;28;19959;-59
2022/02/08 04:17:57;;;;;;;;;;;;;;;-144.99;100.00;52586.69;5010741;28;20436;-60
2022/02/08 04:34:38;;;;;;;;;;;;;;;-144.99;100.00;52586.69;4985038;22;20017;-62
2022/02/08 04:40:12;;;;;;;;;;;;;;;-144.99;100.00;52572.44;4981667;28;19995;-59
2022/02/08 04:42:46;;;;;;;;;;;;;;;-144.99;100.00;52586.69;5009035;28;20045;-59
2022/02/08 04:45:21;;;;;;;;;;;;;;;-144.99;100.00;52631.53;5008293;28;20053;-58
2022/02/08 04:48:01;;;;;;;;;;;;;;;-144.99;100.00;52607.09;5008952;28;19966;-59
2022/02/08 04:50:28;;;;;;;;;;;;;;;-144.99;100.00;52603.00;5008592;28;19976;-59
2022/02/08 04:53:02;;;;;;;;;;;;;;;-144.99;100.00;52596.88;5008584;28;20371;-58
2022/02/08 04:55:38;;;;;;;;;;;;;;;-144.99;100.00;52594.84;5008472;28;20439;-59
2022/02/08 04:58:16;;;;;;;;;;;;;;;-144.99;100.00;52598.94;5009162;28;19962;-60
2022/02/08 05:00:48;;;;;;;;;;;;;;;-144.99;100.00;52592.81;5008028;28;19960;-58
2022/02/08 05:36:33;;;;;;;;;;;;;;;-144.99;100.00;52588.75;5011846;28;20030;-57
2022/02/08 05:41:51;;;;;;;;;;;;;;;-144.99;100.00;52584.66;5012577;28;19986;-59
2022/02/08 05:44:34;;;;;;;;;;;;;;;-144.99;100.00;52605.03;5011950;28;20003;-59
2022/02/08 05:47:00;;;;;;;;;;;;;;;-144.99;100.00;52627.47;5011830;28;20433;-59
2022/02/08 05:49:38;;;;;;;;;;;;;;;-144.99;100.00;52578.53;5009606;28;19972;-58
2022/02/08 05:54:51;;;;;;;;;;;;;;;-144.99;100.00;52578.53;5012064;28;19966;-58
2022/02/08 05:57:19;;;;;;;;;;;;;;;-144.99;100.00;52586.69;5011828;28;19956;-58
2022/02/08 05:59:46;;;;;;;;;;;;;;;-144.99;100.00;52586.69;5011375;28;20061;-59
2022/02/08 06:02:12;;;;;;;;;;;;;;;-144.99;100.00;52574.47;5012198;28;20068;-59
2022/02/08 06:04:39;;;;;;;;;;;;;;;-144.99;100.00;52611.16;5011395;28;20009;-59
2022/02/08 06:07:06;;;;;;;;;;;;;;;-144.99;100.00;52623.38;5011445;28;20142;-58
2022/02/08 06:09:33;;;;;;;;;;;;;;;-144.99;100.00;52578.53;5011754;28;19992;-58
2022/02/08 06:11:59;;;;;;;;;;;;;;;-144.99;100.00;52578.53;5008344;28;20051;-58
2022/02/08 06:14:29;;;;;;;;;;;;;;;-144.99;100.00;52611.16;5011139;28;20000;-58
2022/02/08 06:16:55;;;;;;;;;;;;;;;-144.99;100.00;52621.34;5010230;28;19979;-60
2022/02/08 06:19:22;;;;;;;;;;;;;;;-144.99;100.00;52592.81;5011117;28;19973;-58
2022/02/08 06:21:48;;;;;;;;;;;;;;;-144.99;100.00;52592.81;5010016;28;19956;-58
2022/02/08 06:24:15;;;;;;;;;;;;;;;-144.99;100.00;52570.38;5011174;28;19976;-59
2022/02/08 06:26:41;;;;;;;;;;;;;;;-144.99;100.00;52605.03;5011151;28;20337;-58
2022/02/08 06:29:12;;;;;;;;;;;;;;;-144.99;100.00;52623.38;5010814;28;19992;-58
2022/02/08 06:31:41;;;;;;;;;;;;;;;-144.99;100.00;52554.09;5010937;28;19959;-59
2022/02/08 06:34:10;;;;;;;;;;;;;;;-144.99;100.00;52611.16;5011382;28;20074;-60
2022/02/08 06:36:36;;;;;;;;;;;;;;;-144.99;100.00;52580.59;5005828;28;19952;-59
2022/02/08 06:39:06;;;;;;;;;;;;;;;-144.99;100.00;52578.53;5007863;28;20045;-59
2022/02/08 06:41:33;;;;;;;;;;;;;;;-144.99;100.00;52598.94;5009230;28;19960;-57
2022/02/08 06:44:00;;;;;;;;;;;;;;;-144.99;100.00;52562.25;5011060;28;20001;-58
2022/02/08 06:46:27;;;;;;;;;;;;;;;-144.99;100.00;52598.94;5010318;28;19956;-59
2022/02/08 06:48:55;;;;;;;;;;;;;;;-144.99;100.00;52598.94;5010481;28;20211;-58
2022/02/08 06:51:22;;;;;;;;;;;;;;;-144.99;100.00;52582.63;5009662;28;20002;-59
2022/02/08 06:53:48;;;;;;;;;;;;;;;-144.99;100.00;52574.47;5009812;28;19935;-57
2022/02/08 06:56:15;;;;;;;;;;;;;;;-144.99;100.00;52566.31;5010801;28;20067;-57
2022/02/08 06:58:50;;;;;;;;;;;;;;;-144.99;100.00;52590.78;5010691;28;19925;-58
2022/02/08 07:01:18;;;;;;;;;;;;;;;-144.99;100.00;52578.53;5010789;28;19933;-58
2022/02/08 07:03:46;;;;;;;;;;;;;;;-144.99;100.00;52586.69;5010620;28;20459;-60
2022/02/08 07:06:14;;;;;;;;;;;;;;;-144.99;100.00;52570.38;5010107;28;19982;-58
2022/02/08 07:08:41;;;;;;;;;;;;;;;-144.99;100.00;52594.84;5010479;28;19926;-58
2022/02/08 07:11:14;;;;;;;;;;;;;;;-144.99;100.00;52594.84;5007843;28;19956;-59
2022/02/08 07:13:42;;;;;;;;;;;;;;;-144.99;100.00;52586.69;5010212;28;19965;-59
2022/02/08 07:16:09;;;;;;;;;;;;;;;-144.99;100.00;52554.09;5010410;28;20255;-58
2022/02/08 07:18:35;;;;;;;;;;;;;;;-144.99;100.00;52603.00;5010451;28;20010;-58
2022/02/08 07:21:01;;;;;;;;;;;;;;;-144.99;100.00;52590.78;5010143;28;19995;-58
2022/02/08 07:23:29;;;;;;;;;;;;;;;-144.99;100.00;52529.63;5010516;28;20012;-58
2022/02/08 07:25:56;;;;;;;;;;;;;;;-144.99;100.00;52562.25;5010622;28;20411;-59
2022/02/08 07:28:22;;;;;;;;;;;;;;;-144.99;100.00;52550.00;5010201;28;19964;-59
2022/02/08 07:30:49;;;;;;;;;;;;;;;-144.99;100.00;52598.94;5010140;28;20252;-59
2022/02/08 07:33:15;;;;;;;;;;;;;;;-144.99;100.00;52611.16;5009830;28;20051;-59
2022/02/08 07:35:50;;;;;;;;;;;;;;;-144.99;100.00;52621.34;5009777;28;19970;-58
2022/02/08 07:38:28;;;;;;;;;;;;;;;-144.99;100.00;52590.78;5010483;28;19977;-59
2022/02/08 07:43:39;;;;;;;;;;;;;;;-144.99;100.00;52590.78;5009842;28;20400;-59
2022/02/08 07:46:06;;;;;;;;;;;;;;;-144.99;100.00;52554.09;5009777;28;20044;-59
2022/02/08 07:48:33;;;;;;;;;;;;;;;-144.99;100.00;52590.78;5009832;28;20082;-58
2022/02/08 07:50:59;;;;;;;;;;;;;;;-144.99;100.00;52558.16;5008522;28;19946;-60
2022/02/08 07:53:28;;;;;;;;;;;;;;;-144.99;100.00;52564.28;5009741;28;19937;-59
2022/02/08 07:55:56;;;;;;;;;;;;;;;-144.99;100.00;52600.97;5010116;28;19966;-59
2022/02/08 07:58:24;;;;;;;;;;;;;;;-144.99;100.00;52550.00;5009762;28;19970;-59
2022/02/08 08:00:51;;;;;;;;;;;;;;;-144.99;100.00;52578.53;5009062;28;20434;-59
2022/02/08 08:03:17;;;;;;;;;;;;;;;-144.99;100.00;52603.00;5009114;28;19989;-59
2022/02/08 08:05:44;;;;;;;;;;;;;;;-144.99;100.00;52592.81;5008983;28;19971;-58
2022/02/08 08:08:14;;;;;;;;;;;;;;;-144.99;100.00;52600.97;5008973;28;20035;-60
2022/02/08 08:10:45;;;;;;;;;;;;;;;-144.99;100.00;52562.25;5007584;28;20293;-59
2022/02/08 08:13:16;;;;;;;;;;;;;;;-144.99;100.00;52568.34;5009214;28;19973;-59
2022/02/08 08:15:47;;;;;;;;;;;;;;;-144.99;100.00;52574.47;5008772;28;20415;-59
2022/02/08 08:18:26;;;;;;;;;;;;;;;-144.99;100.00;52578.53;5009179;28;19955;-59
2022/02/08 08:20:53;;;;;;;;;;;;;;;-144.99;100.00;52582.63;5008633;28;19978;-59
2022/02/08 08:23:19;;;;;;;;;;;;;;;-144.99;100.00;52537.78;5008988;28;19963;-59
2022/02/08 08:25:49;;;;;;;;;;;;;;;-144.99;100.00;52590.78;5008957;28;20432;-59
2022/02/08 08:28:17;;;;;;;;;;;;;;;-144.99;100.00;52570.38;5008907;28;19944;-59
2022/02/08 08:30:44;;;;;;;;;;;;;;;-144.99;100.00;52588.75;5008534;28;19959;-60
2022/02/08 08:33:12;;;;;;;;;;;;;;;-144.99;100.00;52574.47;5007852;28;20252;-58
2022/02/08 08:35:40;;;;;;;;;;;;;;;-144.99;100.00;52554.09;5008447;28;19959;-59
2022/02/08 08:38:09;;;;;;;;;;;;;;;-144.99;100.00;52562.25;4997157;28;20350;-60
2022/02/08 08:40:49;;;;;;;;;;;;;;;-144.99;100.00;52541.84;5006343;28;19956;-60
2022/02/08 08:43:45;;;;;;;;;;;;;;;-144.99;100.00;52574.47;4996927;28;19967;-60
2022/02/08 08:51:41;;;;;;;;;;;;;;;-144.99;100.00;52566.31;4974655;28;19961;-62
2022/02/08 08:54:08;;;;;;;;;;;;;;;-144.99;100.00;52550.00;5008498;28;20082;-60
2022/02/08 08:56:35;;;;;;;;;;;;;;;-144.99;100.00;52550.00;5008677;28;19999;-60
2022/02/08 08:59:03;;;;;;;;;;;;;;;-144.99;100.00;52578.53;5008981;28;20017;-59
2022/02/08 09:01:30;;;;;;;;;;;;;;;-144.99;100.00;52556.13;5008325;28;20052;-61
2022/02/08 09:03:56;;;;;;;;;;;;;;;-144.99;100.00;52582.63;5007342;28;19970;-61
2022/02/08 09:06:23;;;;;;;;;;;;;;;-144.99;100.00;52590.78;5008757;28;19951;-60
2022/02/08 09:08:49;;;;;;;;;;;;;;;-144.99;100.00;52562.25;5007297;28;20052;-59
2022/02/08 09:11:33;;;;;;;;;;;;;;;-144.99;100.00;52578.53;5001093;28;20410;-60
2022/02/08 09:14:06;;;;;;;;;;;;;;;-144.99;100.00;52574.47;5003657;28;19974;-59
2022/02/08 09:16:39;;;;;;;;;;;;;;;-144.99;100.00;52596.88;5007821;28;20003;-60
2022/02/08 09:30:04;;;;;;;;;;;;;;;-144.99;100.00;52550.00;5008564;28;20027;-60
2022/02/08 09:32:42;;;;;;;;;;;;;;;-144.99;100.00;52558.16;5008484;28;20327;-60
2022/02/08 09:35:09;;;;;;;;;;;;;;;-144.99;100.00;52568.34;4999152;28;19956;-64
2022/02/08 09:37:36;;;;;;;;;;;;;;;-144.99;100.00;52578.53;5007484;28;19967;-67
2022/02/08 09:40:02;;;;;;;;;;;;;;;-144.99;100.00;52590.78;5009016;28;19963;-67
2022/02/08 09:42:29;;;;;;;;;;;;;;;-144.99;100.00;52588.75;5011524;28;19946;-70
2022/02/08 09:44:56;;;;;;;;;;;;;;;-144.99;100.00;52578.53;5009277;28;20315;-69
2022/02/08 09:47:32;;;;;;;;;;;;;;;-144.99;100.00;52603.00;5004848;28;20080;-70
2022/02/08 09:50:07;;;;;;;;;;;;;;;-144.99;100.00;52537.78;5006047;28;19999;-74
2022/02/08 09:52:34;;;;;;;;;;;;;;;-144.99;100.00;52537.78;5007075;28;20007;-75
2022/02/08 09:55:00;;;;;;;;;;;;;;;-144.99;100.00;52562.25;5010568;28;20338;-59
2022/02/08 09:57:27;;;;;;;;;;;;;;;-144.99;100.00;52586.69;5009277;28;19995;-66
2022/02/08 09:59:53;;;;;;;;;;;;;;;-144.99;100.00;52558.16;5008427;28;19993;-65
2022/02/08 10:02:23;;;;;;;;;;;;;;;-144.99;100.00;52582.63;5008590;28;20036;-66
2022/02/08 10:04:58;;;;;;;;;;;;;;;-144.99;100.00;52525.56;5007652;28;20008;-64
2022/02/08 10:07:27;;;;;;;;;;;;;;;-144.99;100.00;52552.03;5003237;28;20082;-65
2022/02/08 10:09:53;;;;;;;;;;;;;;;-144.99;100.00;52537.78;5008009;28;19954;-67
2022/02/08 10:12:29;;;;;;;;;;;;;;;-144.99;100.00;52619.31;5008351;28;19963;-65
2022/02/08 10:23:14;;;;;;;;;;;;;;;-144.99;100.00;52558.16;4972050;28;20458;-67
2022/02/08 10:25:49;;;;;;;;;;;;;;;-144.99;100.00;52594.84;5020182;28;20468;-66
2022/02/08 10:28:28;;;;;;;;;;;;;;;-144.99;100.00;52611.16;5011859;28;19965;-65
2022/02/08 10:31:21;;;;;;;;;;;;;;;-144.99;100.00;52570.38;5020907;28;19969;-64
2022/02/08 10:39:24;;;;;;;;;;;;;;;-144.99;100.00;52554.09;4990715;28;20437;-69
2022/02/08 10:41:50;;;;;;;;;;;;;;;-144.99;100.00;52570.38;4993845;28;20443;-69
2022/02/08 10:44:17;;;;;;;;;;;;;;;-144.99;100.00;52554.09;5000556;28;20035;-70
2022/02/08 10:46:43;;;;;;;;;;;;;;;-144.99;100.00;52596.88;5010573;28;20017;-70
2022/02/08 10:49:11;;;;;;;;;;;;;;;-144.99;100.00;52576.50;5009430;28;20410;-72
2022/02/08 10:51:44;;;;;;;;;;;;;;;-144.99;100.00;52586.69;5008314;28;19990;-70
2022/02/08 10:54:16;;;;;;;;;;;;;;;-144.99;100.00;52566.31;4993766;28;19966;-69
2022/02/08 10:56:46;;;;;;;;;;;;;;;-144.99;100.00;52527.59;4994092;28;20035;-69
2022/02/08 10:59:22;;;;;;;;;;;;;;;-144.99;100.00;52578.53;4993766;28;19926;-69
2022/02/08 11:01:59;;;;;;;;;;;;;;;-144.99;100.00;52537.78;4993566;28;19930;-69
2022/02/08 11:04:42;;;;;;;;;;;;;;;-144.99;100.00;52521.47;4992843;28;20189;-70
2022/02/08 11:07:17;;;;;;;;;;;;;;;-144.99;100.00;52562.25;4994374;28;19933;-69
2022/02/08 11:09:57;;;;;;;;;;;;;;;-144.99;100.00;52554.09;4986030;28;20327;-69
2022/02/08 11:12:43;;;;;;;;;;;;;;;-144.99;100.00;52578.53;4993459;28;19926;-70
2022/02/08 11:15:26;;;;;;;;;;;;;;;-144.99;100.00;52497.00;4988056;28;19968;-70
2022/02/08 11:18:19;;;;;;;;;;;;;;;-144.99;100.00;52560.19;4984523;28;19964;-69
2022/02/08 11:20:50;;;;;;;;;;;;;;;-144.99;100.00;52533.69;4992888;28;20362;-70
2022/02/08 11:23:23;;;;;;;;;;;;;;;-144.99;100.00;52541.84;4993534;28;19926;-70
2022/02/08 11:25:52;;;;;;;;;;;;;;;-144.99;100.00;52590.78;4992817;28;19933;-70
2022/02/08 11:28:25;;;;;;;;;;;;;;;-144.99;100.00;52558.16;4993469;28;19933;-70
2022/02/08 11:30:59;;;;;;;;;;;;;;;-144.99;100.00;52533.69;4992349;28;20488;-69
2022/02/08 11:44:56;;;;;;;;;;;;;;;-144.99;100.00;52570.38;4992657;28;19933;-70
2022/02/08 11:47:35;;;;;;;;;;;;;;;-144.99;100.00;52586.69;4990684;28;19964;-70
2022/02/08 11:50:22;;;;;;;;;;;;;;;-144.99;100.00;52586.69;4976387;28;20007;-70
2022/02/08 11:53:11;;;;;;;;;;;;;;;-144.99;100.00;52556.13;4989953;28;19961;-70
2022/02/08 11:56:02;;;;;;;;;;;;;;;-144.99;100.00;52562.25;4992718;28;19945;-70
2022/02/08 11:58:35;;;;;;;;;;;;;;;-144.99;100.00;52511.28;4992648;28;20108;-70
2022/02/08 12:01:14;;;;;;;;;;;;;;;-144.99;100.00;52570.38;4992350;28;20023;-70
2022/02/08 12:06:50;;;;;;;;;;;;;;;-144.99;100.00;52529.63;4988666;28;19930;-70
2022/02/08 12:09:28;;;;;;;;;;;;;;;-144.99;100.00;52525.56;4987881;28;19951;-70
2022/02/08 12:12:06;;;;;;;;;;;;;;;-144.99;100.00;52541.84;4988979;28;19993;-70
2022/02/08 12:31:34;;;;;;;;;;;;;;;-144.99;100.00;52537.78;4990303;28;19951;-70
2022/02/08 12:34:19;;;;;;;;;;;;;;;-144.99;100.00;52541.84;4988973;28;19926;-70
2022/02/08 12:53:52;;;;;;;;;;;;;;;-144.99;100.00;52574.47;4992949;28;20036;-70
2022/02/08 12:56:30;;;;;;;;;;;;;;;-144.99;100.00;52568.34;4992847;28;19926;-70
2022/02/08 12:59:09;;;;;;;;;;;;;;;-144.99;100.00;52578.53;4990322;28;20441;-70
2022/02/08 13:01:56;;;;;;;;;;;;;;;-144.99;100.00;52594.84;4980349;28;20016;-70
2022/02/08 13:04:40;;;;;;;;;;;;;;;-144.99;100.00;52560.19;4991662;28;19947;-71
2022/02/08 14:05:48;;;;;;;;;;;;;;;-144.99;100.00;52558.16;4994529;28;19926;-70
2022/02/08 14:08:27;;;;;;;;;;;;;;;-144.99;100.00;52568.34;4997766;28;19925;-70
2022/02/08 14:11:16;;;;;;;;;;;;;;;-144.99;100.00;52566.31;4995151;28;19925;-70
2022/02/08 14:19:35;;;;;;;;;;;;;;;-144.99;100.00;52541.84;4941303;29;19938;-70
2022/02/08 14:22:19;;;;;;;;;;;;;;;-144.99;100.00;52570.38;4989064;28;19961;-70
2022/02/08 14:30:24;;;;;;;;;;;;;;;-144.99;100.00;52529.63;4991952;28;20005;-69
2022/02/08 14:33:00;;;;;;;;;;;;;;;-144.99;100.00;52533.69;4999483;28;19937;-69
2022/02/08 15:10:53;;;;;;;;;;;;;;;-144.99;100.00;52560.19;4990300;28;20287;-69
2022/02/08 15:13:23;;;;;;;;;;;;;;;-144.99;100.00;52505.16;4989462;28;20074;-70
2022/02/08 15:18:40;;;;;;;;;;;;;;;-144.99;100.00;52558.16;4983140;28;20073;-70
2022/02/08 15:21:11;;;;;;;;;;;;;;;-144.99;100.00;52545.94;4992670;28;19926;-70
2022/02/08 15:23:38;;;;;;;;;;;;;;;-144.99;100.00;52541.84;4992023;28;20383;-71
2022/02/08 15:26:04;;;;;;;;;;;;;;;-144.99;100.00;52590.78;4993436;28;19926;-70
2022/02/08 15:28:30;;;;;;;;;;;;;;;-144.99;100.00;52521.47;4993083;28;19968;-70
2022/02/08 15:30:57;;;;;;;;;;;;;;;-144.99;100.00;52547.97;4992972;28;20079;-70
2022/02/08 15:33:24;;;;;;;;;;;;;;;-144.99;100.00;52529.63;4992989;28;19926;-70
2022/02/08 15:35:53;;;;;;;;;;;;;;;-144.99;100.00;52578.53;4992876;28;19925;-70
2022/02/08 15:38:21;;;;;;;;;;;;;;;-144.99;100.00;52564.28;4992596;28;20364;-70
2022/02/08 15:40:48;;;;;;;;;;;;;;;-144.99;100.00;52529.63;4993780;28;19926;-70
2022/02/08 15:43:15;;;;;;;;;;;;;;;-144.99;100.00;52556.13;4993076;28;19932;-69
2022/02/08 15:45:48;;;;;;;;;;;;;;;-144.99;100.00;52521.47;4993122;28;20025;-68
2022/02/08 15:48:20;;;;;;;;;;;;;;;-144.99;100.00;52543.91;4992614;28;19929;-70
2022/02/08 15:50:54;;;;;;;;;;;;;;;-144.99;100.00;52525.56;4984973;28;19929;-70
2022/02/08 16:07:19;;;;;;;;;;;;;;;-144.99;100.00;52566.31;5005865;28;19932;-69
2022/02/08 16:09:51;;;;;;;;;;;;;;;-144.99;100.00;52582.63;4999228;28;20012;-70
2022/02/08 16:12:36;;;;;;;;;;;;;;;-144.99;100.00;52537.78;4993341;28;19925;-70
2022/02/08 16:17:58;;;;;;;;;;;;;;;-144.99;100.00;52562.25;4975162;28;20028;-71
2022/02/08 16:20:39;;;;;;;;;;;;;;;-144.99;100.00;52584.66;4992642;28;19926;-70
2022/02/08 16:23:28;;;;;;;;;;;;;;;-144.99;100.00;52550.00;4989994;28;19932;-70
2022/02/08 16:26:04;;;;;;;;;;;;;;;-144.99;100.00;52550.00;4992710;28;20445;-70
2022/02/08 16:28:50;;;;;;;;;;;;;;;-144.99;100.00;52570.38;4991886;28;19929;-70
2022/02/08 16:53:33;;;;;;;;;;;;;;;-144.99;100.00;52578.53;5001633;28;19936;-65
2022/02/08 16:56:10;;;;;;;;;;;;;;;-144.99;100.00;52537.78;5030312;28;20022;-64
2022/02/08 16:58:48;;;;;;;;;;;;;;;-144.99;100.00;52594.84;5028470;28;20011;-64
2022/02/08 17:01:17;;;;;;;;;;;;;;;-144.99;100.00;52570.38;5015921;28;20028;-65
2022/02/08 17:03:48;;;;;;;;;;;;;;;-144.99;100.00;52554.09;5010322;28;19961;-65
2022/02/08 17:06:16;;;;;;;;;;;;;;;-144.99;100.00;52582.63;5009895;28;20693;-63
2022/02/08 17:08:43;;;;;;;;;;;;;;;-144.99;100.00;52578.53;5019002;28;20028;-64
2022/02/08 17:11:17;;;;;;;;;;;;;;;-144.99;100.00;52545.94;5026160;28;20009;-65
2022/02/08 17:14:14;;;;;;;;;;;;;;;-144.99;100.00;52578.53;5026221;28;19932;-64
2022/02/08 17:16:49;;;;;;;;;;;;;;;-144.99;100.00;52566.31;5029188;28;20374;-65
2022/02/08 17:46:58;;;;;;;;;;;;;;;-144.99;100.00;52586.69;5033108;28;20005;-64
2022/02/08 17:49:24;;;;;;;;;;;;;;;-144.99;100.00;52588.75;5033691;28;20024;-64
2022/02/08 17:51:51;;;;;;;;;;;;;;;-144.99;100.00;52533.69;5032491;28;19925;-66
2022/02/08 17:54:17;;;;;;;;;;;;;;;-144.99;100.00;52550.00;5033541;28;20023;-65
2022/02/08 17:56:44;;;;;;;;;;;;;;;-144.99;100.00;52558.16;5033400;28;19925;-65
2022/02/08 17:59:11;;;;;;;;;;;;;;;-144.99;100.00;52545.94;5033489;28;19963;-64
2022/02/08 18:01:37;;;;;;;;;;;;;;;-144.99;100.00;52570.38;5028246;28;20290;-65
2022/02/08 18:04:06;;;;;;;;;;;;;;;-144.99;100.00;52578.53;5013592;28;19995;-66
2022/02/08 18:06:32;;;;;;;;;;;;;;;-144.99;100.00;52586.69;5013239;28;19936;-64